Pryor, Colorado
Current Conditions -  °F | °C
As of 5:54 PM on Tuesday 27 Jan 2015 (Local Time) from KTAD Reporting Station
Clear Clear  
Wind Chill: 12°   Ceiling: Unl
Heat Index: 12°   Visibility: 10mi
Dew Point:   Wind: 5mph
Humidity: 48%   Direction: 190°S
Pressure: 30.09"   Gusts: NA
Location:  37.6936°N, 104.772°W
Report Text: KTAD 280054Z AUTO 19004KT 10SM CLR 12/01 A3009 RMK AO2 SLP159 T01170011
Loading
Personal Weather Stations






























Interactive Weather Map New forecast layout! Learn more

10-Day Weather Forecast

Advertisements
Track Severe Weather on mobile